sensor_id;sensor_type;location;lat;lon;timestamp;P1;durP1;ratioP1;P2;durP2;ratioP2
84745;SDS011;74975;51.922;6.480;2024-02-04T00:01:54;33.53;;;16.60;;
84745;SDS011;74975;51.922;6.480;2024-02-04T00:04:25;32.78;;;15.88;;
84745;SDS011;74975;51.922;6.480;2024-02-04T00:07:03;36.95;;;16.83;;
84745;SDS011;74975;51.922;6.480;2024-02-04T00:09:41;32.90;;;16.58;;
84745;SDS011;74975;51.922;6.480;2024-02-04T00:12:14;29.40;;;15.30;;
84745;SDS011;74975;51.922;6.480;2024-02-04T00:14:46;26.35;;;14.63;;
84745;SDS011;74975;51.922;6.480;2024-02-04T00:17:22;27.52;;;13.48;;
84745;SDS011;74975;51.922;6.480;2024-02-04T00:20:01;34.05;;;15.25;;
84745;SDS011;74975;51.922;6.480;2024-02-04T00:22:39;32.67;;;14.68;;
84745;SDS011;74975;51.922;6.480;2024-02-04T00:25:11;25.88;;;13.15;;
84745;SDS011;74975;51.922;6.480;2024-02-04T00:27:46;27.60;;;14.30;;
84745;SDS011;74975;51.922;6.480;2024-02-04T00:30:21;28.58;;;15.35;;
84745;SDS011;74975;51.922;6.480;2024-02-04T00:33:02;31.63;;;14.73;;
84745;SDS011;74975;51.922;6.480;2024-02-04T00:35:41;28.95;;;13.55;;
84745;SDS011;74975;51.922;6.480;2024-02-04T00:38:26;30.85;;;14.27;;
84745;SDS011;74975;51.922;6.480;2024-02-04T00:41:02;35.33;;;15.48;;
84745;SDS011;74975;51.922;6.480;2024-02-04T00:46:14;30.63;;;13.10;;
84745;SDS011;74975;51.922;6.480;2024-02-04T00:48:51;32.17;;;14.35;;
84745;SDS011;74975;51.922;6.480;2024-02-04T00:51:26;31.75;;;13.52;;
84745;SDS011;74975;51.922;6.480;2024-02-04T00:53:58;29.65;;;12.98;;
84745;SDS011;74975;51.922;6.480;2024-02-04T00:56:36;28.42;;;12.05;;
84745;SDS011;74975;51.922;6.480;2024-02-04T00:59:11;28.83;;;12.95;;
84745;SDS011;74975;51.922;6.480;2024-02-04T01:01:46;21.13;;;9.45;;
84745;SDS011;74975;51.922;6.480;2024-02-04T01:04:22;22.38;;;9.77;;
84745;SDS011;74975;51.922;6.480;2024-02-04T01:06:59;23.15;;;8.90;;
84745;SDS011;74975;51.922;6.480;2024-02-04T01:09:34;19.10;;;9.00;;
84745;SDS011;74975;51.922;6.480;2024-02-04T01:12:10;18.13;;;8.77;;
84745;SDS011;74975;51.922;6.480;2024-02-04T01:14:48;17.13;;;8.52;;
84745;SDS011;74975;51.922;6.480;2024-02-04T01:17:22;16.33;;;8.13;;
84745;SDS011;74975;51.922;6.480;2024-02-04T01:19:54;17.92;;;8.27;;
84745;SDS011;74975;51.922;6.480;2024-02-04T01:22:30;22.27;;;9.88;;
84745;SDS011;74975;51.922;6.480;2024-02-04T01:25:12;18.95;;;9.05;;
84745;SDS011;74975;51.922;6.480;2024-02-04T01:27:52;19.17;;;9.35;;
84745;SDS011;74975;51.922;6.480;2024-02-04T01:30:34;24.38;;;10.48;;
84745;SDS011;74975;51.922;6.480;2024-02-04T01:33:12;25.25;;;11.73;;
84745;SDS011;74975;51.922;6.480;2024-02-04T01:35:45;25.63;;;11.20;;
84745;SDS011;74975;51.922;6.480;2024-02-04T01:38:24;30.58;;;14.82;;
84745;SDS011;74975;51.922;6.480;2024-02-04T01:41:00;42.55;;;16.58;;
84745;SDS011;74975;51.922;6.480;2024-02-04T01:43:31;41.85;;;17.83;;
84745;SDS011;74975;51.922;6.480;2024-02-04T01:46:06;41.08;;;17.75;;
84745;SDS011;74975;51.922;6.480;2024-02-04T01:48:48;46.10;;;20.98;;
84745;SDS011;74975;51.922;6.480;2024-02-04T01:51:23;39.45;;;17.77;;
84745;SDS011;74975;51.922;6.480;2024-02-04T01:54:09;51.22;;;22.75;;
84745;SDS011;74975;51.922;6.480;2024-02-04T01:56:45;44.28;;;21.38;;
84745;SDS011;74975;51.922;6.480;2024-02-04T01:59:22;51.78;;;22.08;;
84745;SDS011;74975;51.922;6.480;2024-02-04T02:02:03;50.85;;;21.67;;
84745;SDS011;74975;51.922;6.480;2024-02-04T02:04:36;52.10;;;21.83;;
84745;SDS011;74975;51.922;6.480;2024-02-04T02:07:14;41.28;;;18.08;;
84745;SDS011;74975;51.922;6.480;2024-02-04T02:09:48;53.95;;;21.98;;
84745;SDS011;74975;51.922;6.480;2024-02-04T02:12:30;59.13;;;20.40;;
84745;SDS011;74975;51.922;6.480;2024-02-04T02:15:21;47.58;;;20.38;;
84745;SDS011;74975;51.922;6.480;2024-02-04T02:18:10;47.50;;;21.08;;
84745;SDS011;74975;51.922;6.480;2024-02-04T02:24:10;43.85;;;19.30;;
84745;SDS011;74975;51.922;6.480;2024-02-04T02:27:04;44.92;;;20.50;;
84745;SDS011;74975;51.922;6.480;2024-02-04T02:29:42;40.17;;;16.88;;
84745;SDS011;74975;51.922;6.480;2024-02-04T02:32:19;46.88;;;20.42;;
84745;SDS011;74975;51.922;6.480;2024-02-04T02:34:52;45.88;;;18.88;;
84745;SDS011;74975;51.922;6.480;2024-02-04T02:40:36;40.10;;;19.45;;
84745;SDS011;74975;51.922;6.480;2024-02-04T02:43:22;40.80;;;17.77;;
84745;SDS011;74975;51.922;6.480;2024-02-04T02:45:58;45.83;;;19.02;;
84745;SDS011;74975;51.922;6.480;2024-02-04T02:48:34;43.97;;;18.92;;
84745;SDS011;74975;51.922;6.480;2024-02-04T02:51:08;44.95;;;19.23;;
84745;SDS011;74975;51.922;6.480;2024-02-04T02:53:48;41.38;;;17.55;;
84745;SDS011;74975;51.922;6.480;2024-02-04T02:56:25;47.45;;;19.17;;
84745;SDS011;74975;51.922;6.480;2024-02-04T02:58:58;47.88;;;20.08;;
84745;SDS011;74975;51.922;6.480;2024-02-04T03:01:39;44.38;;;18.50;;
84745;SDS011;74975;51.922;6.480;2024-02-04T03:04:15;46.50;;;17.95;;
84745;SDS011;74975;51.922;6.480;2024-02-04T03:06:46;37.22;;;17.80;;
84745;SDS011;74975;51.922;6.480;2024-02-04T03:09:26;38.72;;;17.58;;
84745;SDS011;74975;51.922;6.480;2024-02-04T03:12:04;37.13;;;17.15;;
84745;SDS011;74975;51.922;6.480;2024-02-04T03:14:39;35.67;;;16.00;;
84745;SDS011;74975;51.922;6.480;2024-02-04T03:17:21;33.35;;;16.02;;
84745;SDS011;74975;51.922;6.480;2024-02-04T03:19:53;41.97;;;16.60;;
84745;SDS011;74975;51.922;6.480;2024-02-04T03:22:31;42.85;;;17.00;;
84745;SDS011;74975;51.922;6.480;2024-02-04T03:25:12;35.22;;;15.77;;
84745;SDS011;74975;51.922;6.480;2024-02-04T03:27:50;34.88;;;16.42;;
84745;SDS011;74975;51.922;6.480;2024-02-04T03:30:26;36.95;;;15.23;;
84745;SDS011;74975;51.922;6.480;2024-02-04T03:33:05;38.92;;;16.90;;
84745;SDS011;74975;51.922;6.480;2024-02-04T03:35:40;30.63;;;15.57;;
84745;SDS011;74975;51.922;6.480;2024-02-04T03:38:18;38.85;;;15.35;;
84745;SDS011;74975;51.922;6.480;2024-02-04T03:41:00;40.25;;;17.20;;
84745;SDS011;74975;51.922;6.480;2024-02-04T03:43:38;35.33;;;16.35;;
84745;SDS011;74975;51.922;6.480;2024-02-04T03:46:20;36.83;;;16.70;;
84745;SDS011;74975;51.922;6.480;2024-02-04T03:49:04;39.60;;;16.40;;
84745;SDS011;74975;51.922;6.480;2024-02-04T03:51:40;40.92;;;18.13;;
84745;SDS011;74975;51.922;6.480;2024-02-04T03:54:16;38.75;;;17.65;;
84745;SDS011;74975;51.922;6.480;2024-02-04T03:56:54;41.95;;;17.55;;
84745;SDS011;74975;51.922;6.480;2024-02-04T03:59:32;38.28;;;17.80;;
84745;SDS011;74975;51.922;6.480;2024-02-04T04:02:03;54.65;;;20.38;;
84745;SDS011;74975;51.922;6.480;2024-02-04T04:04:39;47.70;;;20.58;;
84745;SDS011;74975;51.922;6.480;2024-02-04T04:07:19;58.17;;;24.20;;
84745;SDS011;74975;51.922;6.480;2024-02-04T04:09:51;60.05;;;23.55;;
84745;SDS011;74975;51.922;6.480;2024-02-04T04:12:30;70.13;;;25.80;;
84745;SDS011;74975;51.922;6.480;2024-02-04T04:15:01;52.55;;;23.25;;
84745;SDS011;74975;51.922;6.480;2024-02-04T04:17:39;61.75;;;23.60;;
84745;SDS011;74975;51.922;6.480;2024-02-04T04:20:18;56.38;;;22.92;;
84745;SDS011;74975;51.922;6.480;2024-02-04T04:22:59;52.28;;;21.95;;
84745;SDS011;74975;51.922;6.480;2024-02-04T04:25:35;54.72;;;23.70;;
84745;SDS011;74975;51.922;6.480;2024-02-04T04:30:44;44.20;;;18.80;;
84745;SDS011;74975;51.922;6.480;2024-02-04T04:33:16;31.73;;;14.50;;
84745;SDS011;74975;51.922;6.480;2024-02-04T04:35:54;36.72;;;15.50;;
84745;SDS011;74975;51.922;6.480;2024-02-04T04:38:28;36.42;;;15.48;;
84745;SDS011;74975;51.922;6.480;2024-02-04T04:41:00;38.83;;;15.77;;
84745;SDS011;74975;51.922;6.480;2024-02-04T04:43:36;29.40;;;12.88;;
84745;SDS011;74975;51.922;6.480;2024-02-04T04:46:08;28.08;;;12.52;;
84745;SDS011;74975;51.922;6.480;2024-02-04T04:48:45;25.85;;;11.68;;
84745;SDS011;74975;51.922;6.480;2024-02-04T04:51:18;26.58;;;13.27;;
84745;SDS011;74975;51.922;6.480;2024-02-04T04:56:27;25.73;;;11.25;;
84745;SDS011;74975;51.922;6.480;2024-02-04T04:58:58;24.02;;;11.82;;
84745;SDS011;74975;51.922;6.480;2024-02-04T05:01:33;26.10;;;12.23;;
84745;SDS011;74975;51.922;6.480;2024-02-04T05:04:15;23.73;;;11.95;;
84745;SDS011;74975;51.922;6.480;2024-02-04T05:06:50;26.88;;;12.02;;
84745;SDS011;74975;51.922;6.480;2024-02-04T05:09:28;28.23;;;12.88;;
84745;SDS011;74975;51.922;6.480;2024-02-04T05:12:03;33.47;;;14.82;;
84745;SDS011;74975;51.922;6.480;2024-02-04T05:14:49;30.92;;;14.82;;
84745;SDS011;74975;51.922;6.480;2024-02-04T05:17:25;35.15;;;14.63;;
84745;SDS011;74975;51.922;6.480;2024-02-04T05:19:58;33.28;;;15.13;;
84745;SDS011;74975;51.922;6.480;2024-02-04T05:22:38;36.95;;;15.73;;
84745;SDS011;74975;51.922;6.480;2024-02-04T05:25:14;39.00;;;17.77;;
84745;SDS011;74975;51.922;6.480;2024-02-04T05:27:48;34.80;;;15.38;;
84745;SDS011;74975;51.922;6.480;2024-02-04T05:30:29;34.72;;;15.25;;
84745;SDS011;74975;51.922;6.480;2024-02-04T05:33:03;34.92;;;15.80;;
84745;SDS011;74975;51.922;6.480;2024-02-04T05:35:34;36.50;;;16.60;;
84745;SDS011;74975;51.922;6.480;2024-02-04T05:38:12;42.15;;;17.42;;
84745;SDS011;74975;51.922;6.480;2024-02-04T05:40:46;43.20;;;19.92;;
84745;SDS011;74975;51.922;6.480;2024-02-04T05:43:18;43.10;;;17.55;;
84745;SDS011;74975;51.922;6.480;2024-02-04T05:45:52;57.53;;;21.95;;
84745;SDS011;74975;51.922;6.480;2024-02-04T05:48:25;44.13;;;20.38;;
84745;SDS011;74975;51.922;6.480;2024-02-04T05:50:57;50.85;;;21.08;;
84745;SDS011;74975;51.922;6.480;2024-02-04T05:53:28;49.28;;;21.38;;
84745;SDS011;74975;51.922;6.480;2024-02-04T05:55:59;50.00;;;20.48;;
84745;SDS011;74975;51.922;6.480;2024-02-04T05:58:34;39.17;;;17.23;;
84745;SDS011;74975;51.922;6.480;2024-02-04T06:01:05;44.92;;;18.23;;
84745;SDS011;74975;51.922;6.480;2024-02-04T06:03:37;36.95;;;15.73;;
84745;SDS011;74975;51.922;6.480;2024-02-04T06:06:17;40.97;;;17.15;;
84745;SDS011;74975;51.922;6.480;2024-02-04T06:08:51;35.47;;;15.45;;
84745;SDS011;74975;51.922;6.480;2024-02-04T06:11:26;38.67;;;16.23;;
84745;SDS011;74975;51.922;6.480;2024-02-04T06:13:58;34.75;;;15.52;;
84745;SDS011;74975;51.922;6.480;2024-02-04T06:20:00;40.55;;;16.73;;
84745;SDS011;74975;51.922;6.480;2024-02-04T06:23:17;33.60;;;14.57;;
84745;SDS011;74975;51.922;6.480;2024-02-04T06:26:44;40.15;;;16.42;;
84745;SDS011;74975;51.922;6.480;2024-02-04T06:33:39;34.40;;;15.75;;
84745;SDS011;74975;51.922;6.480;2024-02-04T06:40:37;27.48;;;11.85;;
84745;SDS011;74975;51.922;6.480;2024-02-04T06:50:57;30.15;;;13.18;;
84745;SDS011;74975;51.922;6.480;2024-02-04T07:00:45;30.60;;;13.20;;
84745;SDS011;74975;51.922;6.480;2024-02-04T07:03:23;25.85;;;13.20;;
84745;SDS011;74975;51.922;6.480;2024-02-04T07:06:01;28.85;;;12.38;;
84745;SDS011;74975;51.922;6.480;2024-02-04T07:08:37;29.60;;;11.85;;
84745;SDS011;74975;51.922;6.480;2024-02-04T07:11:07;33.13;;;13.57;;
84745;SDS011;74975;51.922;6.480;2024-02-04T07:13:41;27.75;;;11.88;;
84745;SDS011;74975;51.922;6.480;2024-02-04T07:16:10;25.73;;;12.10;;
84745;SDS011;74975;51.922;6.480;2024-02-04T07:21:15;29.67;;;11.95;;
84745;SDS011;74975;51.922;6.480;2024-02-04T07:23:45;28.95;;;12.60;;
84745;SDS011;74975;51.922;6.480;2024-02-04T07:26:11;28.70;;;11.73;;
84745;SDS011;74975;51.922;6.480;2024-02-04T07:28:43;30.88;;;13.65;;
84745;SDS011;74975;51.922;6.480;2024-02-04T07:31:14;32.45;;;12.48;;
84745;SDS011;74975;51.922;6.480;2024-02-04T07:33:44;32.92;;;13.82;;
84745;SDS011;74975;51.922;6.480;2024-02-04T07:36:30;28.77;;;12.50;;
84745;SDS011;74975;51.922;6.480;2024-02-04T07:39:05;33.05;;;11.13;;
84745;SDS011;74975;51.922;6.480;2024-02-04T07:41:36;32.88;;;12.13;;
84745;SDS011;74975;51.922;6.480;2024-02-04T07:44:06;34.35;;;13.85;;
84745;SDS011;74975;51.922;6.480;2024-02-04T07:46:34;27.27;;;11.55;;
84745;SDS011;74975;51.922;6.480;2024-02-04T07:49:00;28.30;;;11.23;;
84745;SDS011;74975;51.922;6.480;2024-02-04T07:51:26;19.17;;;9.07;;
84745;SDS011;74975;51.922;6.480;2024-02-04T07:53:52;17.65;;;8.93;;
84745;SDS011;74975;51.922;6.480;2024-02-04T07:56:21;22.02;;;10.07;;
84745;SDS011;74975;51.922;6.480;2024-02-04T07:58:49;27.92;;;11.73;;
84745;SDS011;74975;51.922;6.480;2024-02-04T08:01:17;24.65;;;12.18;;
84745;SDS011;74975;51.922;6.480;2024-02-04T08:03:46;29.60;;;11.93;;
84745;SDS011;74975;51.922;6.480;2024-02-04T08:06:12;30.80;;;12.55;;
84745;SDS011;74975;51.922;6.480;2024-02-04T08:08:44;27.88;;;12.60;;
84745;SDS011;74975;51.922;6.480;2024-02-04T08:11:19;26.40;;;11.93;;
84745;SDS011;74975;51.922;6.480;2024-02-04T08:13:52;32.30;;;14.02;;
84745;SDS011;74975;51.922;6.480;2024-02-04T08:16:20;34.65;;;14.50;;
84745;SDS011;74975;51.922;6.480;2024-02-04T08:18:50;34.17;;;14.07;;
84745;SDS011;74975;51.922;6.480;2024-02-04T08:24:16;25.77;;;12.38;;
84745;SDS011;74975;51.922;6.480;2024-02-04T08:26:46;23.90;;;11.10;;
84745;SDS011;74975;51.922;6.480;2024-02-04T08:29:15;18.77;;;10.30;;
84745;SDS011;74975;51.922;6.480;2024-02-04T08:31:43;15.05;;;8.48;;
84745;SDS011;74975;51.922;6.480;2024-02-04T08:34:12;18.50;;;9.73;;
84745;SDS011;74975;51.922;6.480;2024-02-04T08:36:45;11.15;;;6.72;;
84745;SDS011;74975;51.922;6.480;2024-02-04T08:39:10;11.05;;;5.80;;
84745;SDS011;74975;51.922;6.480;2024-02-04T08:41:36;15.27;;;7.72;;
84745;SDS011;74975;51.922;6.480;2024-02-04T08:44:09;10.95;;;6.20;;
84745;SDS011;74975;51.922;6.480;2024-02-04T08:46:40;21.25;;;7.53;;
84745;SDS011;74975;51.922;6.480;2024-02-04T08:49:20;14.18;;;6.88;;
84745;SDS011;74975;51.922;6.480;2024-02-04T08:51:52;16.38;;;7.55;;
84745;SDS011;74975;51.922;6.480;2024-02-04T08:54:30;14.15;;;7.28;;
84745;SDS011;74975;51.922;6.480;2024-02-04T08:56:59;12.10;;;5.82;;
84745;SDS011;74975;51.922;6.480;2024-02-04T08:59:25;10.95;;;6.35;;
84745;SDS011;74975;51.922;6.480;2024-02-04T09:01:57;11.77;;;6.00;;
84745;SDS011;74975;51.922;6.480;2024-02-04T09:04:26;13.05;;;6.53;;
84745;SDS011;74975;51.922;6.480;2024-02-04T09:09:22;9.88;;;5.80;;
84745;SDS011;74975;51.922;6.480;2024-02-04T09:11:48;13.15;;;6.00;;
84745;SDS011;74975;51.922;6.480;2024-02-04T09:14:17;9.10;;;5.03;;
84745;SDS011;74975;51.922;6.480;2024-02-04T09:16:45;14.93;;;6.65;;
84745;SDS011;74975;51.922;6.480;2024-02-04T09:19:15;11.20;;;6.20;;
84745;SDS011;74975;51.922;6.480;2024-02-04T09:21:49;12.85;;;5.97;;
84745;SDS011;74975;51.922;6.480;2024-02-04T09:24:16;13.73;;;6.75;;
84745;SDS011;74975;51.922;6.480;2024-02-04T09:26:46;14.18;;;7.50;;
84745;SDS011;74975;51.922;6.480;2024-02-04T09:29:14;12.27;;;6.50;;
84745;SDS011;74975;51.922;6.480;2024-02-04T09:31:42;12.50;;;7.32;;
84745;SDS011;74975;51.922;6.480;2024-02-04T09:34:18;13.77;;;6.78;;
84745;SDS011;74975;51.922;6.480;2024-02-04T09:36:52;16.23;;;7.95;;
84745;SDS011;74975;51.922;6.480;2024-02-04T09:39:20;17.83;;;7.82;;
84745;SDS011;74975;51.922;6.480;2024-02-04T09:41:50;13.45;;;6.35;;
84745;SDS011;74975;51.922;6.480;2024-02-04T09:44:20;14.95;;;5.95;;
84745;SDS011;74975;51.922;6.480;2024-02-04T09:46:57;10.18;;;6.38;;
84745;SDS011;74975;51.922;6.480;2024-02-04T09:49:29;8.25;;;4.78;;
84745;SDS011;74975;51.922;6.480;2024-02-04T09:51:57;10.15;;;5.63;;
84745;SDS011;74975;51.922;6.480;2024-02-04T09:54:25;10.32;;;5.80;;
84745;SDS011;74975;51.922;6.480;2024-02-04T09:56:53;11.18;;;6.10;;
84745;SDS011;74975;51.922;6.480;2024-02-04T09:59:28;13.05;;;6.65;;
84745;SDS011;74975;51.922;6.480;2024-02-04T10:01:54;14.32;;;6.32;;
84745;SDS011;74975;51.922;6.480;2024-02-04T10:04:20;10.73;;;5.22;;
84745;SDS011;74975;51.922;6.480;2024-02-04T10:06:50;9.45;;;5.38;;
84745;SDS011;74975;51.922;6.480;2024-02-04T10:09:25;13.82;;;6.13;;
84745;SDS011;74975;51.922;6.480;2024-02-04T10:11:56;12.02;;;6.07;;
84745;SDS011;74975;51.922;6.480;2024-02-04T10:14:22;12.52;;;6.80;;
84745;SDS011;74975;51.922;6.480;2024-02-04T10:16:57;8.30;;;5.45;;
84745;SDS011;74975;51.922;6.480;2024-02-04T10:19:26;9.60;;;4.93;;
84745;SDS011;74975;51.922;6.480;2024-02-04T10:22:05;13.82;;;7.47;;
84745;SDS011;74975;51.922;6.480;2024-02-04T10:24:34;12.80;;;7.93;;
84745;SDS011;74975;51.922;6.480;2024-02-04T10:26:59;12.23;;;7.32;;
84745;SDS011;74975;51.922;6.480;2024-02-04T10:29:24;10.48;;;5.93;;
84745;SDS011;74975;51.922;6.480;2024-02-04T10:31:54;11.15;;;6.18;;
84745;SDS011;74975;51.922;6.480;2024-02-04T10:34:26;11.43;;;6.70;;
84745;SDS011;74975;51.922;6.480;2024-02-04T10:36:53;10.68;;;5.63;;
84745;SDS011;74975;51.922;6.480;2024-02-04T10:39:18;7.82;;;5.18;;
84745;SDS011;74975;51.922;6.480;2024-02-04T10:41:48;10.27;;;5.95;;
84745;SDS011;74975;51.922;6.480;2024-02-04T10:46:50;8.50;;;4.65;;
84745;SDS011;74975;51.922;6.480;2024-02-04T10:49:19;5.85;;;4.35;;
84745;SDS011;74975;51.922;6.480;2024-02-04T10:51:48;5.82;;;4.40;;
84745;SDS011;74975;51.922;6.480;2024-02-04T10:54:16;6.03;;;4.15;;
84745;SDS011;74975;51.922;6.480;2024-02-04T10:56:43;8.35;;;3.45;;
84745;SDS011;74975;51.922;6.480;2024-02-04T10:59:22;8.48;;;4.65;;
84745;SDS011;74975;51.922;6.480;2024-02-04T11:01:49;6.72;;;3.85;;
84745;SDS011;74975;51.922;6.480;2024-02-04T11:04:18;8.05;;;4.93;;
84745;SDS011;74975;51.922;6.480;2024-02-04T11:06:45;10.13;;;4.50;;
84745;SDS011;74975;51.922;6.480;2024-02-04T11:09:14;7.43;;;4.15;;
84745;SDS011;74975;51.922;6.480;2024-02-04T11:11:43;7.45;;;3.83;;
84745;SDS011;74975;51.922;6.480;2024-02-04T11:14:11;4.88;;;3.65;;
84745;SDS011;74975;51.922;6.480;2024-02-04T11:28:07;8.23;;;3.90;;
84745;SDS011;74975;51.922;6.480;2024-02-04T11:30:37;8.52;;;3.30;;
84745;SDS011;74975;51.922;6.480;2024-02-04T11:33:10;5.35;;;3.35;;
84745;SDS011;74975;51.922;6.480;2024-02-04T11:35:38;5.45;;;3.30;;
84745;SDS011;74975;51.922;6.480;2024-02-04T11:38:11;7.97;;;3.25;;
84745;SDS011;74975;51.922;6.480;2024-02-04T11:40:38;4.88;;;2.72;;
84745;SDS011;74975;51.922;6.480;2024-02-04T11:43:13;5.20;;;3.95;;
84745;SDS011;74975;51.922;6.480;2024-02-04T11:45:43;5.13;;;1.98;;
84745;SDS011;74975;51.922;6.480;2024-02-04T11:50:42;3.33;;;1.90;;
84745;SDS011;74975;51.922;6.480;2024-02-04T11:53:11;4.07;;;2.25;;
84745;SDS011;74975;51.922;6.480;2024-02-04T11:55:47;3.17;;;2.17;;
84745;SDS011;74975;51.922;6.480;2024-02-04T11:58:19;4.43;;;2.80;;
84745;SDS011;74975;51.922;6.480;2024-02-04T12:00:56;5.07;;;3.00;;
84745;SDS011;74975;51.922;6.480;2024-02-04T12:03:32;3.92;;;2.90;;
84745;SDS011;74975;51.922;6.480;2024-02-04T12:06:03;6.97;;;3.35;;
84745;SDS011;74975;51.922;6.480;2024-02-04T12:08:34;4.22;;;2.50;;
84745;SDS011;74975;51.922;6.480;2024-02-04T12:11:05;1.95;;;1.63;;
84745;SDS011;74975;51.922;6.480;2024-02-04T12:13:35;4.00;;;2.22;;
84745;SDS011;74975;51.922;6.480;2024-02-04T12:16:04;4.32;;;2.00;;
84745;SDS011;74975;51.922;6.480;2024-02-04T12:18:46;2.85;;;1.80;;
84745;SDS011;74975;51.922;6.480;2024-02-04T12:21:16;2.85;;;1.73;;
84745;SDS011;74975;51.922;6.480;2024-02-04T12:23:52;3.28;;;2.20;;
84745;SDS011;74975;51.922;6.480;2024-02-04T12:26:31;3.40;;;2.22;;
84745;SDS011;74975;51.922;6.480;2024-02-04T12:29:20;3.28;;;2.20;;
84745;SDS011;74975;51.922;6.480;2024-02-04T12:31:46;4.45;;;2.55;;
84745;SDS011;74975;51.922;6.480;2024-02-04T12:34:20;4.18;;;2.60;;
84745;SDS011;74975;51.922;6.480;2024-02-04T12:36:45;6.57;;;2.63;;
84745;SDS011;74975;51.922;6.480;2024-02-04T12:39:22;4.72;;;2.67;;
84745;SDS011;74975;51.922;6.480;2024-02-04T12:41:51;5.78;;;3.33;;
84745;SDS011;74975;51.922;6.480;2024-02-04T12:44:18;5.78;;;3.40;;
84745;SDS011;74975;51.922;6.480;2024-02-04T12:46:51;4.85;;;3.25;;
84745;SDS011;74975;51.922;6.480;2024-02-04T12:49:21;4.20;;;2.97;;
84745;SDS011;74975;51.922;6.480;2024-02-04T12:51:47;4.97;;;3.53;;
84745;SDS011;74975;51.922;6.480;2024-02-04T12:54:14;4.13;;;2.85;;
84745;SDS011;74975;51.922;6.480;2024-02-04T12:56:53;7.07;;;3.75;;
84745;SDS011;74975;51.922;6.480;2024-02-04T12:59:32;7.88;;;4.05;;
84745;SDS011;74975;51.922;6.480;2024-02-04T13:04:48;7.93;;;3.85;;
84745;SDS011;74975;51.922;6.480;2024-02-04T13:07:21;5.75;;;3.33;;
84745;SDS011;74975;51.922;6.480;2024-02-04T13:09:59;9.50;;;4.80;;
84745;SDS011;74975;51.922;6.480;2024-02-04T13:12:25;6.88;;;4.25;;
84745;SDS011;74975;51.922;6.480;2024-02-04T13:14:51;6.60;;;3.78;;
84745;SDS011;74975;51.922;6.480;2024-02-04T13:17:16;8.50;;;4.45;;
84745;SDS011;74975;51.922;6.480;2024-02-04T13:19:44;10.27;;;4.05;;
84745;SDS011;74975;51.922;6.480;2024-02-04T13:22:14;7.90;;;4.32;;
84745;SDS011;74975;51.922;6.480;2024-02-04T13:24:39;6.72;;;4.50;;
84745;SDS011;74975;51.922;6.480;2024-02-04T13:27:15;7.28;;;3.90;;
84745;SDS011;74975;51.922;6.480;2024-02-04T13:29:42;6.25;;;4.18;;
84745;SDS011;74975;51.922;6.480;2024-02-04T13:32:08;9.23;;;5.50;;
84745;SDS011;74975;51.922;6.480;2024-02-04T13:34:46;8.57;;;5.32;;
84745;SDS011;74975;51.922;6.480;2024-02-04T13:37:12;12.57;;;5.47;;
84745;SDS011;74975;51.922;6.480;2024-02-04T13:39:41;7.93;;;5.03;;
84745;SDS011;74975;51.922;6.480;2024-02-04T13:42:06;13.52;;;7.40;;
84745;SDS011;74975;51.922;6.480;2024-02-04T13:44:32;12.85;;;5.75;;
84745;SDS011;74975;51.922;6.480;2024-02-04T13:46:58;10.68;;;4.63;;
84745;SDS011;74975;51.922;6.480;2024-02-04T13:49:31;13.48;;;7.30;;
84745;SDS011;74975;51.922;6.480;2024-02-04T13:51:56;11.50;;;5.25;;
84745;SDS011;74975;51.922;6.480;2024-02-04T13:54:29;11.50;;;4.85;;
84745;SDS011;74975;51.922;6.480;2024-02-04T13:56:54;12.02;;;5.10;;
84745;SDS011;74975;51.922;6.480;2024-02-04T13:59:25;17.08;;;6.47;;
84745;SDS011;74975;51.922;6.480;2024-02-04T14:01:53;12.77;;;5.10;;
84745;SDS011;74975;51.922;6.480;2024-02-04T14:04:21;12.20;;;6.72;;
84745;SDS011;74975;51.922;6.480;2024-02-04T14:06:50;13.75;;;6.40;;
84745;SDS011;74975;51.922;6.480;2024-02-04T14:09:19;6.53;;;4.50;;
84745;SDS011;74975;51.922;6.480;2024-02-04T14:11:45;8.98;;;4.68;;
84745;SDS011;74975;51.922;6.480;2024-02-04T14:14:10;7.30;;;4.65;;
84745;SDS011;74975;51.922;6.480;2024-02-04T14:16:43;8.70;;;4.20;;
84745;SDS011;74975;51.922;6.480;2024-02-04T14:19:15;12.18;;;5.40;;
84745;SDS011;74975;51.922;6.480;2024-02-04T14:21:41;8.80;;;4.82;;
84745;SDS011;74975;51.922;6.480;2024-02-04T14:24:10;9.18;;;3.97;;
84745;SDS011;74975;51.922;6.480;2024-02-04T14:26:42;11.38;;;6.25;;
84745;SDS011;74975;51.922;6.480;2024-02-04T14:29:11;14.05;;;5.65;;
84745;SDS011;74975;51.922;6.480;2024-02-04T14:31:37;15.07;;;7.05;;
84745;SDS011;74975;51.922;6.480;2024-02-04T14:34:02;11.38;;;5.70;;
84745;SDS011;74975;51.922;6.480;2024-02-04T14:36:32;9.82;;;5.20;;
84745;SDS011;74975;51.922;6.480;2024-02-04T14:39:04;17.00;;;5.63;;
84745;SDS011;74975;51.922;6.480;2024-02-04T14:41:35;9.63;;;5.28;;
84745;SDS011;74975;51.922;6.480;2024-02-04T14:44:04;11.30;;;5.63;;
84745;SDS011;74975;51.922;6.480;2024-02-04T14:46:36;9.52;;;5.30;;
84745;SDS011;74975;51.922;6.480;2024-02-04T14:49:02;13.52;;;5.40;;
84745;SDS011;74975;51.922;6.480;2024-02-04T14:51:51;14.23;;;5.22;;
84745;SDS011;74975;51.922;6.480;2024-02-04T14:54:36;13.82;;;5.18;;
84745;SDS011;74975;51.922;6.480;2024-02-04T14:57:03;16.70;;;5.72;;
84745;SDS011;74975;51.922;6.480;2024-02-04T14:59:33;6.22;;;3.80;;
84745;SDS011;74975;51.922;6.480;2024-02-04T15:02:07;14.55;;;5.57;;
84745;SDS011;74975;51.922;6.480;2024-02-04T15:04:34;18.52;;;6.57;;
84745;SDS011;74975;51.922;6.480;2024-02-04T15:07:10;8.07;;;4.32;;
84745;SDS011;74975;51.922;6.480;2024-02-04T15:09:35;9.65;;;5.20;;
84745;SDS011;74975;51.922;6.480;2024-02-04T15:12:06;12.57;;;5.40;;
84745;SDS011;74975;51.922;6.480;2024-02-04T15:14:33;11.63;;;5.53;;
84745;SDS011;74975;51.922;6.480;2024-02-04T15:17:08;9.65;;;4.97;;
84745;SDS011;74975;51.922;6.480;2024-02-04T15:19:34;11.43;;;5.93;;
84745;SDS011;74975;51.922;6.480;2024-02-04T15:22:07;10.73;;;4.97;;
84745;SDS011;74975;51.922;6.480;2024-02-04T15:24:51;9.02;;;3.78;;
84745;SDS011;74975;51.922;6.480;2024-02-04T15:27:17;9.52;;;3.92;;
84745;SDS011;74975;51.922;6.480;2024-02-04T15:29:54;7.25;;;4.07;;
84745;SDS011;74975;51.922;6.480;2024-02-04T15:32:23;10.93;;;4.60;;
84745;SDS011;74975;51.922;6.480;2024-02-04T15:34:51;12.40;;;4.63;;
84745;SDS011;74975;51.922;6.480;2024-02-04T15:37:22;8.35;;;4.55;;
84745;SDS011;74975;51.922;6.480;2024-02-04T15:39:50;9.68;;;4.25;;
84745;SDS011;74975;51.922;6.480;2024-02-04T15:42:20;9.40;;;4.13;;
84745;SDS011;74975;51.922;6.480;2024-02-04T15:44:45;9.90;;;4.28;;
84745;SDS011;74975;51.922;6.480;2024-02-04T15:47:20;6.70;;;3.28;;
84745;SDS011;74975;51.922;6.480;2024-02-04T15:49:58;8.10;;;2.97;;
84745;SDS011;74975;51.922;6.480;2024-02-04T15:52:37;8.95;;;3.30;;
84745;SDS011;74975;51.922;6.480;2024-02-04T15:55:04;9.55;;;3.17;;
84745;SDS011;74975;51.922;6.480;2024-02-04T15:57:37;6.18;;;2.95;;
84745;SDS011;74975;51.922;6.480;2024-02-04T16:00:07;8.85;;;2.80;;
84745;SDS011;74975;51.922;6.480;2024-02-04T16:02:44;5.80;;;2.47;;
84745;SDS011;74975;51.922;6.480;2024-02-04T16:05:20;4.57;;;2.13;;
84745;SDS011;74975;51.922;6.480;2024-02-04T16:07:52;11.32;;;4.03;;
84745;SDS011;74975;51.922;6.480;2024-02-04T16:10:26;7.00;;;2.63;;
84745;SDS011;74975;51.922;6.480;2024-02-04T16:12:57;6.50;;;3.05;;
84745;SDS011;74975;51.922;6.480;2024-02-04T16:15:31;3.97;;;2.40;;